Time;durP1;ratioP1;P1;durP2;ratioP2;P2;SDS_P1;SDS_P2;PMS_P1;PMS_P2;Temp;Humidity;BMP_temperature;BMP_pressure;BME280_temperature;BME280_humidity;BME280_pressure;Samples;Min_cycle;Max_cycle;Signal;HPM_P1;HPM_P2
2021/04/02 00:00:15;;;;;;;30.73;21.43;;;14.60;95.40;;;;;;5033266;28;20429;-61
2021/04/02 00:02:41;;;;;;;33.00;22.90;;;14.70;95.70;;;;;;5033477;28;20164;-61
2021/04/02 00:05:07;;;;;;;32.13;21.83;;;14.70;95.80;;;;;;5032756;28;20407;-61
2021/04/02 00:07:33;;;;;;;34.67;23.30;;;14.70;96.10;;;;;;5033308;28;20409;-61
2021/04/02 00:09:58;;;;;;;32.20;23.30;;;14.70;96.00;;;;;;5033451;28;20442;-61
2021/04/02 00:12:24;;;;;;;31.30;22.30;;;14.60;96.40;;;;;;5035740;28;20684;-61
2021/04/02 00:14:49;;;;;;;29.50;24.03;;;14.60;96.50;;;;;;5033435;28;20288;-61
2021/04/02 00:17:15;;;;;;;28.17;21.87;;;14.60;96.50;;;;;;5032237;28;20173;-61
2021/04/02 00:19:41;;;;;;;34.60;23.90;;;14.50;96.70;;;;;;5032951;28;20249;-61
2021/04/02 00:22:06;;;;;;;34.20;24.60;;;14.20;97.40;;;;;;5032963;28;20162;-61
2021/04/02 00:24:32;;;;;;;28.30;21.20;;;14.20;97.60;;;;;;5032064;28;20216;-61
2021/04/02 00:26:57;;;;;;;38.00;23.90;;;14.20;97.80;;;;;;5037162;28;20509;-61
2021/04/02 00:29:23;;;;;;;38.70;27.53;;;14.20;98.00;;;;;;5037188;28;20199;-61
2021/04/02 00:31:49;;;;;;;38.63;25.27;;;14.10;98.20;;;;;;5036801;28;20239;-61
2021/04/02 00:34:14;;;;;;;33.10;25.37;;;13.90;98.60;;;;;;5037442;28;20201;-60
2021/04/02 00:36:40;;;;;;;37.53;26.40;;;13.90;98.90;;;;;;5037163;28;20182;-61
2021/04/02 00:39:05;;;;;;;37.73;24.77;;;13.90;98.90;;;;;;5036131;28;20195;-61
2021/04/02 00:41:31;;;;;;;31.07;25.33;;;13.90;99.00;;;;;;5035472;28;20245;-61
2021/04/02 00:43:57;;;;;;;37.90;28.60;;;13.80;99.30;;;;;;5022157;28;20171;-62
2021/04/02 00:46:23;;;;;;;33.77;24.93;;;13.80;99.50;;;;;;5040160;28;20180;-62
2021/04/02 00:48:49;;;;;;;34.93;26.53;;;13.80;99.50;;;;;;5037305;28;20226;-62
2021/04/02 00:51:21;;;;;;;36.50;27.00;;;13.80;99.40;;;;;;5037501;28;20783;-62
2021/04/02 00:53:47;;;;;;;41.37;28.37;;;13.70;99.90;;;;;;5038355;28;20481;-62
2021/04/02 00:56:14;;;;;;;40.03;29.47;;;13.60;99.90;;;;;;5046169;28;20456;-62
2021/04/02 00:58:49;;;;;;;38.40;27.37;;;13.50;99.90;;;;;;5046643;28;20171;-62
2021/04/02 01:01:16;;;;;;;41.50;28.30;;;13.40;99.90;;;;;;5030314;28;20398;-62
2021/04/02 01:03:43;;;;;;;36.83;29.77;;;13.40;99.90;;;;;;5023517;28;20427;-62
2021/04/02 01:06:16;;;;;;;42.53;29.30;;;13.50;99.90;;;;;;5035154;28;20434;-62
2021/04/02 01:08:42;;;;;;;45.73;28.07;;;13.50;99.90;;;;;;5022088;28;20759;-62
2021/04/02 01:11:14;;;;;;;41.07;29.30;;;13.60;99.90;;;;;;5019627;28;20437;-62
2021/04/02 01:13:52;;;;;;;45.57;31.80;;;13.60;99.90;;;;;;5040158;28;20455;-62
2021/04/02 01:16:22;;;;;;;42.33;33.93;;;13.80;99.90;;;;;;5050726;28;20373;-62
2021/04/02 01:18:55;;;;;;;40.57;31.27;;;13.90;99.90;;;;;;5048085;28;20424;-62
2021/04/02 01:21:34;;;;;;;37.30;28.87;;;13.90;99.90;;;;;;5042656;28;20391;-61
2021/04/02 01:24:00;;;;;;;33.63;27.63;;;13.90;99.90;;;;;;5036371;28;20807;-61
2021/04/02 01:26:43;;;;;;;36.00;25.87;;;14.00;99.90;;;;;;5035663;28;20408;-62
2021/04/02 01:29:17;;;;;;;33.33;26.93;;;13.90;99.90;;;;;;5036084;28;20229;-62
2021/04/02 01:31:49;;;;;;;35.60;26.50;;;13.70;99.90;;;;;;5035765;28;20390;-62
2021/04/02 01:34:19;;;;;;;34.27;26.30;;;13.80;99.90;;;;;;5035927;28;20544;-62
2021/04/02 01:36:46;;;;;;;37.47;27.93;;;13.70;99.90;;;;;;5035259;28;20391;-62
2021/04/02 01:39:13;;;;;;;38.27;28.17;;;13.70;99.90;;;;;;5035767;28;20432;-62
2021/04/02 01:41:43;;;;;;;36.77;26.60;;;13.60;99.90;;;;;;5035730;28;20422;-62
2021/04/02 01:44:10;;;;;;;32.53;24.27;;;13.50;99.90;;;;;;5035711;28;20406;-61
2021/04/02 01:46:38;;;;;;;36.20;26.43;;;13.50;99.90;;;;;;5035482;28;20450;-62
2021/04/02 01:49:06;;;;;;;33.70;25.37;;;13.50;99.90;;;;;;5035964;28;20429;-62
2021/04/02 01:51:33;;;;;;;34.60;25.70;;;13.50;99.90;;;;;;5035065;28;20414;-62
2021/04/02 01:54:01;;;;;;;31.30;23.00;;;13.50;99.90;;;;;;5034326;28;20458;-62
2021/04/02 01:56:28;;;;;;;26.37;23.00;;;13.50;99.90;;;;;;5035330;28;20407;-62
2021/04/02 01:58:56;;;;;;;29.10;24.03;;;13.60;99.90;;;;;;5035780;28;20405;-62
2021/04/02 02:01:28;;;;;;;30.87;22.70;;;13.60;99.90;;;;;;5035814;28;20403;-62
2021/04/02 02:03:57;;;;;;;31.93;23.60;;;13.60;99.90;;;;;;5036196;28;20391;-62
2021/04/02 02:06:25;;;;;;;28.63;21.20;;;13.60;99.90;;;;;;5035744;28;20450;-62
2021/04/02 02:08:53;;;;;;;25.77;20.10;;;13.40;99.90;;;;;;5035045;28;20551;-61
2021/04/02 02:11:20;;;;;;;30.77;21.97;;;13.40;99.90;;;;;;5035096;28;20406;-62
2021/04/02 02:13:56;;;;;;;25.33;21.40;;;13.40;99.90;;;;;;5035498;28;20488;-62
2021/04/02 02:16:23;;;;;;;25.00;21.03;;;13.40;99.90;;;;;;5035687;28;20392;-64
2021/04/02 02:18:56;;;;;;;27.97;20.17;;;13.10;99.90;;;;;;5052528;28;20435;-62
2021/04/02 02:21:23;;;;;;;21.87;19.57;;;13.20;99.90;;;;;;5054726;28;20879;-62
2021/04/02 02:23:49;;;;;;;25.13;17.77;;;13.10;99.90;;;;;;5041960;28;20449;-62
2021/04/02 02:26:16;;;;;;;19.67;15.70;;;13.10;99.90;;;;;;5034915;28;20878;-62
2021/04/02 02:28:43;;;;;;;19.20;16.93;;;13.10;99.90;;;;;;5034134;28;20756;-62
2021/04/02 02:31:09;;;;;;;24.07;19.13;;;13.00;99.90;;;;;;5035087;28;20425;-62
2021/04/02 02:33:36;;;;;;;25.90;19.57;;;13.00;99.90;;;;;;5034750;28;20464;-62
2021/04/02 02:36:03;;;;;;;26.93;17.47;;;13.10;99.90;;;;;;5034991;28;20416;-62
2021/04/02 02:38:30;;;;;;;22.70;17.10;;;13.00;99.90;;;;;;5034387;28;20428;-62
2021/04/02 02:40:55;;;;;;;22.97;17.50;;;12.80;99.90;;;;;;5063986;23;20484;-60
2021/04/02 02:43:21;;;;;;;20.67;17.63;;;12.70;99.90;;;;;;5048037;28;20508;-62
2021/04/02 02:45:47;;;;;;;20.37;18.13;;;12.50;99.90;;;;;;5052785;28;20181;-61
2021/04/02 02:48:14;;;;;;;22.13;18.10;;;12.40;99.90;;;;;;5053240;28;20396;-62
2021/04/02 02:50:47;;;;;;;22.23;16.60;;;12.40;99.90;;;;;;5054184;28;20250;-59
2021/04/02 02:53:15;;;;;;;18.80;14.83;;;12.20;99.90;;;;;;5054337;28;20391;-60
2021/04/02 02:55:43;;;;;;;21.10;16.33;;;12.10;99.90;;;;;;5054176;28;20456;-62
2021/04/02 02:58:10;;;;;;;21.70;16.40;;;12.10;99.90;;;;;;5054211;28;20451;-60
2021/04/02 03:00:39;;;;;;;20.80;14.73;;;12.20;99.90;;;;;;5053398;28;20429;-59
2021/04/02 03:03:15;;;;;;;20.80;13.93;;;12.10;99.90;;;;;;5054155;28;20416;-61
2021/04/02 03:05:43;;;;;;;18.33;13.47;;;12.10;99.90;;;;;;5053090;28;20398;-60
2021/04/02 03:08:12;;;;;;;16.33;12.77;;;12.00;99.90;;;;;;5054100;28;20492;-59
2021/04/02 03:10:38;;;;;;;14.97;13.37;;;12.10;99.90;;;;;;5053627;28;20429;-61
2021/04/02 03:13:06;;;;;;;22.73;12.57;;;12.10;99.90;;;;;;5053712;28;20898;-61
2021/04/02 03:15:34;;;;;;;15.30;10.93;;;12.20;99.90;;;;;;5053290;28;20490;-61
2021/04/02 03:18:10;;;;;;;15.00;12.93;;;12.20;99.90;;;;;;5053308;28;20401;-61
2021/04/02 03:20:38;;;;;;;16.10;12.53;;;12.10;99.90;;;;;;5046646;28;20429;-62
2021/04/02 03:23:10;;;;;;;20.03;13.30;;;12.10;99.90;;;;;;5053152;28;20424;-61
2021/04/02 03:25:38;;;;;;;15.73;12.10;;;12.00;99.90;;;;;;5053179;28;20490;-61
2021/04/02 03:28:04;;;;;;;16.50;12.10;;;12.00;99.90;;;;;;5052928;28;20823;-61
2021/04/02 03:30:30;;;;;;;15.40;12.30;;;11.80;99.90;;;;;;5053222;28;20423;-61
2021/04/02 03:33:05;;;;;;;19.90;13.27;;;11.80;99.90;;;;;;5053323;28;20462;-61
2021/04/02 03:35:32;;;;;;;16.60;10.50;;;11.80;99.90;;;;;;5053488;28;20444;-61
2021/04/02 03:37:58;;;;;;;15.80;10.80;;;11.80;99.90;;;;;;5035651;28;20458;-61
2021/04/02 03:40:25;;;;;;;14.80;10.20;;;11.80;99.90;;;;;;5053020;28;20437;-61
2021/04/02 03:42:55;;;;;;;15.37;10.33;;;11.80;99.90;;;;;;5053423;28;20416;-61
2021/04/02 03:45:23;;;;;;;14.70;11.60;;;11.70;99.90;;;;;;5053898;28;20405;-61
2021/04/02 03:47:51;;;;;;;14.50;10.40;;;11.80;99.90;;;;;;5053084;28;20393;-61
2021/04/02 03:50:19;;;;;;;9.10;7.97;;;11.90;99.90;;;;;;5053404;28;20841;-61
2021/04/02 03:52:56;;;;;;;10.67;8.27;;;11.70;99.90;;;;;;5053032;28;20397;-61
2021/04/02 03:55:23;;;;;;;10.37;8.37;;;11.70;99.90;;;;;;5053255;28;20477;-61
2021/04/02 03:57:50;;;;;;;10.37;9.23;;;11.60;99.90;;;;;;5053426;28;20397;-61
2021/04/02 04:00:32;;;;;;;9.87;8.40;;;11.60;99.90;;;;;;5056103;28;20421;-63
2021/04/02 04:03:00;;;;;;;11.37;8.80;;;11.60;99.90;;;;;;5056425;28;20435;-61
2021/04/02 04:05:28;;;;;;;10.50;8.30;;;11.50;99.90;;;;;;5037191;28;20404;-61
2021/04/02 04:07:54;;;;;;;9.10;7.07;;;11.40;99.90;;;;;;5036981;28;20463;-61
2021/04/02 04:10:20;;;;;;;8.93;7.37;;;11.20;99.90;;;;;;5037025;28;20434;-61
2021/04/02 04:12:49;;;;;;;9.07;6.43;;;11.10;99.90;;;;;;5036983;28;20416;-61
2021/04/02 04:15:16;;;;;;;8.03;5.80;;;11.10;99.70;;;;;;5040742;28;20202;-61
2021/04/02 04:17:45;;;;;;;8.43;6.27;;;11.20;99.50;;;;;;5057039;28;20401;-61
2021/04/02 04:20:13;;;;;;;7.30;5.43;;;11.20;99.30;;;;;;5056968;28;20420;-61
2021/04/02 04:22:41;;;;;;;7.83;6.10;;;11.20;99.20;;;;;;5057635;28;20499;-61
2021/04/02 04:25:08;;;;;;;8.20;5.70;;;11.30;99.00;;;;;;5057170;28;20408;-61
2021/04/02 04:27:38;;;;;;;8.60;6.20;;;11.40;99.00;;;;;;5056267;28;20401;-62
2021/04/02 04:30:05;;;;;;;8.80;6.70;;;11.50;98.80;;;;;;5056875;28;20421;-61
2021/04/02 04:32:32;;;;;;;8.67;6.13;;;11.40;98.20;;;;;;5055410;28;21049;-62
2021/04/02 04:34:59;;;;;;;6.43;5.63;;;11.30;97.90;;;;;;5056474;28;20460;-60
2021/04/02 04:37:26;;;;;;;6.70;5.50;;;11.00;97.70;;;;;;5056589;28;20408;-61
2021/04/02 04:39:55;;;;;;;6.77;5.50;;;10.80;98.10;;;;;;5055999;28;20579;-62
2021/04/02 04:42:22;;;;;;;7.03;5.40;;;10.90;98.00;;;;;;5056684;28;20449;-62
2021/04/02 04:44:51;;;;;;;6.43;4.67;;;10.70;97.50;;;;;;5056340;28;20780;-61
2021/04/02 04:47:17;;;;;;;5.67;4.73;;;10.60;97.30;;;;;;5055463;28;20505;-60
2021/04/02 04:49:44;;;;;;;5.30;3.60;;;10.60;97.30;;;;;;5056178;28;20476;-61
2021/04/02 04:52:13;;;;;;;5.17;4.07;;;10.70;97.20;;;;;;5056467;28;20175;-61
2021/04/02 04:54:42;;;;;;;5.83;3.73;;;10.60;97.30;;;;;;5056096;28;20526;-60
2021/04/02 04:57:10;;;;;;;4.93;3.77;;;10.60;97.40;;;;;;5056187;28;20748;-61
2021/04/02 04:59:38;;;;;;;7.70;4.30;;;10.50;96.80;;;;;;5056291;28;20425;-60
2021/04/02 05:02:05;;;;;;;3.30;2.97;;;10.50;96.90;;;;;;5056012;28;20909;-61
2021/04/02 05:04:31;;;;;;;5.40;4.10;;;10.50;96.80;;;;;;5055050;28;20428;-60
2021/04/02 05:07:00;;;;;;;3.63;2.77;;;10.50;96.60;;;;;;5055729;28;20411;-59
2021/04/02 05:09:28;;;;;;;4.23;3.37;;;10.40;96.20;;;;;;5055913;28;20415;-58
2021/04/02 05:11:55;;;;;;;6.13;3.87;;;10.20;96.40;;;;;;5055029;28;20403;-60
2021/04/02 05:14:22;;;;;;;6.80;3.70;;;10.10;96.70;;;;;;5054601;28;20501;-59
2021/04/02 05:16:50;;;;;;;4.27;3.30;;;10.20;96.70;;;;;;5056092;28;20919;-61
2021/04/02 05:19:18;;;;;;;3.53;3.23;;;10.10;96.80;;;;;;5054172;28;20529;-60
2021/04/02 05:21:45;;;;;;;4.60;3.40;;;10.00;96.60;;;;;;5055683;28;20748;-61
2021/04/02 05:24:11;;;;;;;6.00;3.57;;;10.00;96.40;;;;;;5055888;28;20960;-60
2021/04/02 05:26:37;;;;;;;3.50;3.10;;;9.70;97.00;;;;;;5055529;28;20402;-60
2021/04/02 05:29:03;;;;;;;4.70;3.60;;;9.80;97.30;;;;;;5055418;28;20406;-60
2021/04/02 05:31:29;;;;;;;5.03;3.63;;;10.00;96.90;;;;;;5055693;28;20444;-61
2021/04/02 05:33:55;;;;;;;4.27;3.40;;;9.90;96.80;;;;;;5037084;28;20517;-61
2021/04/02 05:36:21;;;;;;;4.50;3.20;;;9.80;96.90;;;;;;5055939;28;20902;-61
2021/04/02 05:38:46;;;;;;;4.00;2.80;;;9.90;97.10;;;;;;5053984;28;20236;-61
2021/04/02 05:41:19;;;;;;;4.60;3.20;;;9.90;96.80;;;;;;5055321;28;20205;-61
2021/04/02 05:43:55;;;;;;;4.07;3.27;;;10.20;96.50;;;;;;5055566;28;20166;-61
2021/04/02 05:46:24;;;;;;;7.07;3.67;;;10.10;96.40;;;;;;5055512;28;20383;-63
2021/04/02 05:49:03;;;;;;;11.90;3.77;;;10.00;96.60;;;;;;5053950;28;20424;-61
2021/04/02 05:51:29;;;;;;;5.53;4.13;;;10.00;96.60;;;;;;5055065;28;20932;-61
2021/04/02 05:53:56;;;;;;;5.50;4.43;;;9.80;97.40;;;;;;5055227;28;20445;-61
2021/04/02 05:56:23;;;;;;;6.17;4.10;;;9.90;97.60;;;;;;5055316;28;20776;-61
2021/04/02 05:58:50;;;;;;;7.03;3.93;;;9.90;97.40;;;;;;5054997;28;20394;-61
2021/04/02 06:01:16;;;;;;;7.57;4.27;;;9.90;97.40;;;;;;5054884;28;20453;-61
2021/04/02 06:03:42;;;;;;;5.10;3.60;;;10.00;97.10;;;;;;5054366;28;20431;-62
2021/04/02 06:06:12;;;;;;;6.20;3.70;;;10.00;96.90;;;;;;5054762;28;20444;-61
2021/04/02 06:08:39;;;;;;;6.47;4.63;;;10.00;97.00;;;;;;5054643;28;20898;-61
2021/04/02 06:11:05;;;;;;;10.60;3.77;;;9.80;97.60;;;;;;5054788;28;20433;-62
2021/04/02 06:13:30;;;;;;;5.47;4.43;;;9.90;97.90;;;;;;5052616;28;20407;-59
2021/04/02 06:15:56;;;;;;;5.97;4.53;;;9.70;98.00;;;;;;5054697;28;20178;-60
2021/04/02 06:18:24;;;;;;;6.27;4.57;;;9.70;98.30;;;;;;5054326;28;20172;-60
2021/04/02 06:20:51;;;;;;;7.90;4.07;;;9.90;98.20;;;;;;5054458;28;20432;-61
2021/04/02 06:23:28;;;;;;;5.60;4.30;;;10.10;97.60;;;;;;5053548;28;20449;-61
2021/04/02 06:25:56;;;;;;;5.30;3.80;;;10.20;97.30;;;;;;5054772;28;20468;-61
2021/04/02 06:28:27;;;;;;;6.83;5.17;;;10.30;97.20;;;;;;5053617;28;20462;-62
2021/04/02 06:31:14;;;;;;;4.40;4.00;;;10.20;97.20;;;;;;5054599;28;20463;-62
2021/04/02 06:33:43;;;;;;;7.63;5.70;;;10.20;97.40;;;;;;5037866;28;20385;-62
2021/04/02 06:36:23;;;;;;;8.03;6.57;;;9.90;98.10;;;;;;5054145;28;20428;-61
2021/04/02 06:38:51;;;;;;;6.57;5.33;;;10.10;97.90;;;;;;5054088;28;20388;-61
2021/04/02 06:41:18;;;;;;;6.43;5.83;;;10.10;97.40;;;;;;5053955;28;20894;-61
2021/04/02 06:43:47;;;;;;;9.73;5.90;;;10.20;97.50;;;;;;5054114;28;20410;-61
2021/04/02 06:46:17;;;;;;;6.63;5.90;;;10.30;97.80;;;;;;5053405;28;20425;-60
2021/04/02 06:48:42;;;;;;;8.10;5.43;;;10.40;97.50;;;;;;5055827;28;20412;-62
2021/04/02 06:51:16;;;;;;;8.00;6.10;;;10.40;97.50;;;;;;5054074;28;20433;-62
2021/04/02 06:53:44;;;;;;;6.73;4.90;;;10.30;97.50;;;;;;5054185;28;20174;-62
2021/04/02 06:56:11;;;;;;;5.53;5.03;;;10.30;97.40;;;;;;5054133;28;20406;-62
2021/04/02 06:58:41;;;;;;;8.23;6.10;;;10.40;97.30;;;;;;5053854;28;20414;-62
2021/04/02 07:01:08;;;;;;;8.73;6.63;;;10.60;97.10;;;;;;5053541;28;20580;-62
2021/04/02 07:03:35;;;;;;;6.97;5.50;;;10.70;96.90;;;;;;5053836;28;20419;-62
2021/04/02 07:06:03;;;;;;;7.43;5.73;;;10.60;97.00;;;;;;5054068;28;20421;-61
2021/04/02 07:08:30;;;;;;;7.10;6.40;;;10.50;97.10;;;;;;5053682;28;20924;-61
2021/04/02 07:10:57;;;;;;;8.33;6.50;;;10.60;97.30;;;;;;5053744;28;20431;-62
2021/04/02 07:13:25;;;;;;;7.20;6.50;;;10.60;96.90;;;;;;5053789;28;20483;-61
2021/04/02 07:15:51;;;;;;;9.50;6.13;;;10.50;96.60;;;;;;5053359;28;20523;-61
2021/04/02 07:18:17;;;;;;;8.07;6.77;;;10.50;97.40;;;;;;5053947;28;20416;-62
2021/04/02 07:20:43;;;;;;;6.80;6.10;;;10.40;97.10;;;;;;5053897;28;20786;-62
2021/04/02 07:23:10;;;;;;;7.73;6.80;;;10.30;97.20;;;;;;5053576;28;20749;-61
2021/04/02 07:25:35;;;;;;;7.20;6.30;;;10.20;97.60;;;;;;5049743;28;20424;-61
2021/04/02 07:28:01;;;;;;;7.20;6.50;;;10.30;97.70;;;;;;5051929;28;20409;-62
2021/04/02 07:30:29;;;;;;;8.53;6.00;;;10.40;97.40;;;;;;5053129;28;20204;-62
2021/04/02 07:33:01;;;;;;;7.43;6.70;;;10.50;97.30;;;;;;5053168;28;20708;-62
2021/04/02 07:35:27;;;;;;;8.10;7.30;;;10.90;97.40;;;;;;5053120;28;20476;-62
2021/04/02 07:37:58;;;;;;;7.33;6.63;;;11.00;96.90;;;;;;5053272;28;20439;-61
2021/04/02 07:40:31;;;;;;;7.97;6.97;;;11.00;96.70;;;;;;5053446;28;20454;-61
2021/04/02 07:43:00;;;;;;;10.47;7.67;;;10.80;96.90;;;;;;5053204;28;20946;-62
2021/04/02 07:45:31;;;;;;;7.40;6.70;;;10.80;96.80;;;;;;5052985;28;20784;-62
2021/04/02 07:48:12;;;;;;;8.40;7.60;;;10.70;97.20;;;;;;5053846;28;20406;-62
2021/04/02 07:50:41;;;;;;;8.47;7.53;;;10.50;97.40;;;;;;5053391;28;20494;-62
2021/04/02 07:53:17;;;;;;;10.27;7.83;;;10.60;97.40;;;;;;5052981;28;20412;-62
2021/04/02 07:55:48;;;;;;;9.10;8.20;;;10.60;97.70;;;;;;5052817;28;20483;-62
2021/04/02 07:58:22;;;;;;;9.30;8.30;;;10.80;97.40;;;;;;5053353;28;20392;-62
2021/04/02 08:00:48;;;;;;;9.43;8.33;;;10.90;97.10;;;;;;5052376;28;20443;-62
2021/04/02 08:03:16;;;;;;;8.67;7.87;;;10.90;97.00;;;;;;5053101;28;20405;-61
2021/04/02 08:05:55;;;;;;;8.40;7.60;;;10.90;97.30;;;;;;5053090;28;20444;-62
2021/04/02 08:08:23;;;;;;;14.40;9.47;;;10.60;97.40;;;;;;5053026;28;20407;-62
2021/04/02 08:11:10;;;;;;;9.03;8.13;;;10.50;97.80;;;;;;5052741;28;20970;-62
2021/04/02 08:13:49;;;;;;;10.13;8.93;;;10.70;98.30;;;;;;5053034;28;20420;-62
2021/04/02 08:16:33;;;;;;;10.43;8.80;;;11.00;97.60;;;;;;5052332;28;20511;-62
2021/04/02 08:19:15;;;;;;;9.60;8.60;;;11.00;97.40;;;;;;5052947;28;20414;-61
2021/04/02 08:21:46;;;;;;;11.17;10.00;;;10.90;97.40;;;;;;5052964;28;20893;-61
2021/04/02 08:24:13;;;;;;;14.50;9.53;;;11.10;97.50;;;;;;5034985;28;20423;-61
2021/04/02 08:26:41;;;;;;;12.07;9.67;;;11.30;97.10;;;;;;5052870;28;20409;-60
2021/04/02 08:29:08;;;;;;;13.07;9.30;;;11.30;97.00;;;;;;5052570;28;20419;-61
2021/04/02 08:31:35;;;;;;;12.70;9.83;;;11.40;97.00;;;;;;5052164;28;20424;-61
2021/04/02 08:34:01;;;;;;;11.30;9.77;;;11.50;96.70;;;;;;5052785;28;20539;-61
2021/04/02 08:36:28;;;;;;;10.33;9.23;;;11.50;96.80;;;;;;5052741;28;20496;-61
2021/04/02 08:38:55;;;;;;;10.97;9.83;;;11.60;96.80;;;;;;5052722;28;20402;-61
2021/04/02 08:41:27;;;;;;;11.50;10.33;;;11.40;97.20;;;;;;5082147;23;20493;-64
2021/04/02 08:43:53;;;;;;;11.27;9.93;;;11.40;97.00;;;;;;5055035;28;20421;-64
2021/04/02 08:46:43;;;;;;;12.40;10.03;;;11.40;97.10;;;;;;5053430;28;20490;-65
2021/04/02 08:49:10;;;;;;;12.13;10.63;;;11.50;96.90;;;;;;5056485;28;20382;-64
2021/04/02 08:51:36;;;;;;;12.20;10.70;;;11.60;97.00;;;;;;5056425;28;20982;-64
2021/04/02 08:54:03;;;;;;;11.93;10.80;;;11.70;96.70;;;;;;5055856;28;20872;-64
2021/04/02 08:56:31;;;;;;;13.67;10.90;;;11.80;96.50;;;;;;5055861;28;20405;-65
2021/04/02 08:58:58;;;;;;;12.03;10.83;;;11.50;96.80;;;;;;5055939;28;20401;-64
2021/04/02 09:01:24;;;;;;;12.63;10.57;;;11.70;96.90;;;;;;5055596;28;20423;-64
2021/04/02 09:03:52;;;;;;;12.33;11.03;;;11.80;96.80;;;;;;5037954;28;20413;-64
2021/04/02 09:06:18;;;;;;;11.97;10.70;;;11.80;96.70;;;;;;5055909;28;20865;-64
2021/04/02 09:08:44;;;;;;;11.70;10.50;;;11.70;96.70;;;;;;5038066;28;20459;-64
2021/04/02 09:11:12;;;;;;;11.80;10.60;;;11.50;96.80;;;;;;5044579;28;20445;-65
2021/04/02 09:13:43;;;;;;;12.40;10.83;;;11.40;97.10;;;;;;5018008;28;20251;-64
2021/04/02 09:16:15;;;;;;;10.40;9.40;;;11.40;97.30;;;;;;5035739;28;20418;-65
2021/04/02 09:18:55;;;;;;;11.80;10.60;;;11.70;97.20;;;;;;5036066;28;20425;-64
2021/04/02 09:21:22;;;;;;;11.27;9.97;;;12.00;96.80;;;;;;5035687;28;20469;-64
2021/04/02 09:23:49;;;;;;;12.13;10.87;;;12.30;96.20;;;;;;5036186;28;20408;-64
2021/04/02 09:26:15;;;;;;;12.43;11.13;;;12.30;96.30;;;;;;5035622;28;20505;-64
2021/04/02 09:28:42;;;;;;;13.00;11.53;;;12.40;96.00;;;;;;5036271;28;20773;-64
2021/04/02 09:31:20;;;;;;;12.07;10.77;;;12.40;96.10;;;;;;5035431;28;20465;-64
2021/04/02 09:33:49;;;;;;;15.23;11.37;;;12.70;95.60;;;;;;5035363;28;20410;-64
2021/04/02 09:36:16;;;;;;;11.90;10.63;;;12.80;95.50;;;;;;5035389;28;20504;-64
2021/04/02 09:38:42;;;;;;;12.70;10.73;;;13.10;95.10;;;;;;5035615;28;20436;-64
2021/04/02 09:41:10;;;;;;;11.43;9.97;;;13.10;94.70;;;;;;5034726;28;20537;-64
2021/04/02 09:43:52;;;;;;;10.60;9.60;;;13.20;94.50;;;;;;5035973;28;20835;-64
2021/04/02 09:46:32;;;;;;;14.53;11.43;;;13.10;94.40;;;;;;5035096;28;20898;-65
2021/04/02 09:49:07;;;;;;;11.80;10.43;;;13.00;94.50;;;;;;5035317;28;20937;-65
2021/04/02 09:51:36;;;;;;;11.93;10.70;;;12.90;94.70;;;;;;5035093;28;20423;-64
2021/04/02 09:54:02;;;;;;;11.40;10.23;;;13.20;94.50;;;;;;5035192;28;20874;-64
2021/04/02 09:56:28;;;;;;;11.83;10.70;;;13.20;93.80;;;;;;5034462;28;20468;-64
2021/04/02 09:58:54;;;;;;;11.90;10.70;;;13.60;93.60;;;;;;5034803;28;20899;-64
2021/04/02 10:01:20;;;;;;;12.57;11.27;;;13.90;93.50;;;;;;5034704;28;20185;-65
2021/04/02 10:03:46;;;;;;;10.57;9.63;;;13.90;93.10;;;;;;5034919;28;20766;-65
2021/04/02 10:06:12;;;;;;;10.87;9.63;;;14.00;91.90;;;;;;5035129;28;20248;-65
2021/04/02 10:08:37;;;;;;;12.10;10.90;;;14.30;91.60;;;;;;5034970;28;20825;-65
2021/04/02 10:11:03;;;;;;;11.80;10.50;;;14.40;92.30;;;;;;5034376;28;20273;-65
2021/04/02 10:13:28;;;;;;;10.90;10.00;;;14.70;91.40;;;;;;5034988;28;20636;-64
2021/04/02 10:15:54;;;;;;;11.10;10.10;;;14.60;91.30;;;;;;5034898;28;20190;-65
2021/04/02 10:18:20;;;;;;;12.57;11.37;;;14.10;91.30;;;;;;5029633;28;20175;-64
2021/04/02 10:20:46;;;;;;;10.60;9.50;;;13.90;91.70;;;;;;5034736;28;20231;-65
2021/04/02 10:23:12;;;;;;;11.07;9.90;;;14.00;91.70;;;;;;5034687;28;20495;-65
2021/04/02 10:25:37;;;;;;;10.77;9.63;;;14.20;91.90;;;;;;5034294;28;20645;-65
2021/04/02 10:28:03;;;;;;;11.20;10.20;;;14.60;91.10;;;;;;5034469;28;20169;-65
2021/04/02 10:30:29;;;;;;;11.00;9.93;;;14.60;90.50;;;;;;5034526;28;20216;-65
2021/04/02 10:32:54;;;;;;;11.10;10.00;;;14.60;90.60;;;;;;5034398;28;20170;-65
2021/04/02 10:35:21;;;;;;;10.77;9.67;;;14.70;90.00;;;;;;5033969;28;20193;-65
2021/04/02 10:37:47;;;;;;;11.50;10.50;;;14.80;90.20;;;;;;5034415;28;20169;-65
2021/04/02 10:40:14;;;;;;;11.83;10.63;;;14.80;89.50;;;;;;5033610;28;20979;-65
2021/04/02 10:42:39;;;;;;;12.70;10.40;;;14.80;90.30;;;;;;5034027;28;20172;-64
2021/04/02 10:45:06;;;;;;;11.20;9.87;;;14.90;89.40;;;;;;5034386;28;20489;-64
2021/04/02 10:47:32;;;;;;;12.10;11.03;;;14.80;88.80;;;;;;5034692;28;20186;-64
2021/04/02 10:49:58;;;;;;;11.40;10.20;;;14.80;88.40;;;;;;5053812;28;20576;-64
2021/04/02 10:52:23;;;;;;;10.90;9.83;;;14.70;89.60;;;;;;5054080;28;20170;-64
2021/04/02 10:54:49;;;;;;;10.77;9.83;;;15.70;87.90;;;;;;5054031;28;20204;-64
2021/04/02 10:57:15;;;;;;;10.50;9.50;;;16.60;84.80;;;;;;5053485;28;20190;-64
2021/04/02 10:59:42;;;;;;;12.40;10.20;;;17.00;82.90;;;;;;5054209;28;20525;-64
2021/04/02 11:02:09;;;;;;;12.03;10.83;;;17.20;80.60;;;;;;5053505;28;20393;-64
2021/04/02 11:04:34;;;;;;;11.93;10.77;;;17.60;78.40;;;;;;5035884;28;20445;-65
2021/04/02 11:07:00;;;;;;;10.30;9.30;;;17.70;77.80;;;;;;5053645;28;20407;-64
2021/04/02 11:09:25;;;;;;;9.60;8.77;;;18.30;74.40;;;;;;5053265;28;20592;-65
2021/04/02 11:11:51;;;;;;;12.40;10.77;;;18.70;73.20;;;;;;5036207;28;20195;-64
2021/04/02 11:14:17;;;;;;;10.90;9.90;;;18.40;70.50;;;;;;5034126;28;20191;-64
2021/04/02 11:16:42;;;;;;;10.23;9.23;;;17.40;73.20;;;;;;5033333;28;20210;-64
2021/04/02 11:19:08;;;;;;;10.13;9.13;;;17.70;72.40;;;;;;5033526;28;20636;-64
2021/04/02 11:21:34;;;;;;;9.50;8.60;;;19.10;70.40;;;;;;5033306;28;20190;-65
2021/04/02 11:23:59;;;;;;;9.53;8.40;;;19.80;66.70;;;;;;5033283;28;20178;-65
2021/04/02 11:26:25;;;;;;;9.83;8.90;;;20.30;65.10;;;;;;5033058;28;20250;-65
2021/04/02 11:28:51;;;;;;;9.60;8.70;;;20.20;63.90;;;;;;5033090;28;20167;-64
2021/04/02 11:31:18;;;;;;;9.50;8.60;;;21.10;61.50;;;;;;5032706;28;20187;-66
2021/04/02 11:33:44;;;;;;;9.60;8.70;;;22.20;57.90;;;;;;5033272;28;20509;-66
2021/04/02 11:36:10;;;;;;;10.33;9.43;;;21.80;57.30;;;;;;5033019;28;20526;-65
2021/04/02 11:38:36;;;;;;;10.20;9.23;;;22.00;57.20;;;;;;5033948;28;20886;-65
2021/04/02 11:41:03;;;;;;;9.90;8.43;;;22.20;57.60;;;;;;5032741;28;20269;-65
2021/04/02 11:43:28;;;;;;;9.53;6.97;;;22.10;56.60;;;;;;5033484;28;20409;-66
2021/04/02 11:45:54;;;;;;;8.10;7.40;;;21.70;57.50;;;;;;5033108;28;20406;-66
2021/04/02 11:48:20;;;;;;;8.53;7.70;;;21.00;57.30;;;;;;5032327;28;20171;-67
2021/04/02 11:50:45;;;;;;;7.30;6.70;;;21.80;57.00;;;;;;5032936;28;20191;-66
2021/04/02 11:53:11;;;;;;;7.33;6.63;;;21.60;54.50;;;;;;5033271;28;20171;-65
2021/04/02 11:55:37;;;;;;;7.53;6.93;;;21.40;55.40;;;;;;5033049;28;20249;-65
2021/04/02 11:58:03;;;;;;;8.00;7.30;;;22.00;54.00;;;;;;5033354;28;20566;-65
2021/04/02 12:00:29;;;;;;;8.53;7.77;;;22.30;55.20;;;;;;5033013;28;20226;-65
2021/04/02 12:02:55;;;;;;;7.43;6.47;;;22.20;53.80;;;;;;5033158;28;20406;-65
2021/04/02 12:05:24;;;;;;;7.63;7.03;;;21.90;54.80;;;;;;5033137;28;20433;-66
2021/04/02 12:07:53;;;;;;;6.77;6.27;;;21.20;55.10;;;;;;5033176;28;20398;-65
2021/04/02 12:10:19;;;;;;;7.80;7.00;;;22.20;54.60;;;;;;5032924;28;20517;-65
2021/04/02 12:12:45;;;;;;;6.77;6.27;;;22.40;54.00;;;;;;5032653;28;20914;-65
2021/04/02 12:15:11;;;;;;;7.13;6.53;;;21.80;53.00;;;;;;5032752;28;20511;-66
2021/04/02 12:17:37;;;;;;;7.90;7.23;;;22.80;52.60;;;;;;5033527;28;20258;-64
2021/04/02 12:20:09;;;;;;;6.60;6.10;;;23.70;52.20;;;;;;5033111;28;21054;-65
2021/04/02 12:22:35;;;;;;;6.10;5.60;;;22.90;50.50;;;;;;5036453;28;20413;-65
2021/04/02 12:25:01;;;;;;;5.60;5.20;;;22.70;50.90;;;;;;5036885;28;20496;-65
2021/04/02 12:27:27;;;;;;;6.03;5.43;;;23.20;51.80;;;;;;5036768;28;20464;-65
2021/04/02 12:29:55;;;;;;;7.50;6.80;;;23.20;49.60;;;;;;5036863;28;20445;-65
2021/04/02 12:32:22;;;;;;;6.20;5.70;;;22.60;51.10;;;;;;5036776;28;20175;-64
2021/04/02 12:34:48;;;;;;;6.33;5.83;;;23.30;49.30;;;;;;5036841;28;20449;-65
2021/04/02 12:37:13;;;;;;;5.20;4.80;;;24.50;47.60;;;;;;5036767;28;20410;-65
2021/04/02 12:39:39;;;;;;;6.93;6.33;;;23.90;48.40;;;;;;5037478;28;20648;-65
2021/04/02 12:42:05;;;;;;;7.10;6.50;;;23.30;48.20;;;;;;5036436;28;20211;-64